Time;durP1;ratioP1;P1;durP2;ratioP2;P2;SDS_P1;SDS_P2;PMS_P1;PMS_P2;Temp;Humidity;BMP_temperature;BMP_pressure;BME280_temperature;BME280_humidity;BME280_pressure;Samples;Min_cycle;Max_cycle;Signal;HPM_P1;HPM_P2
2021/01/17 00:02:48;;;;;;;3.78;3.48;;;;;;;18.10;42.43;100608.63;;;;-44
2021/01/17 00:05:49;;;;;;;3.60;3.30;;;;;;;18.08;42.44;100605.03;;;;-44
2021/01/17 00:08:48;;;;;;;3.52;3.22;;;;;;;18.05;42.48;100600.02;;;;-44
2021/01/17 00:11:49;;;;;;;4.03;3.69;;;;;;;18.02;42.50;100594.97;;;;-44
2021/01/17 00:14:49;;;;;;;3.66;3.36;;;;;;;17.99;42.43;100596.31;;;;-44
2021/01/17 00:17:48;;;;;;;3.74;3.35;;;;;;;17.97;42.59;100589.80;;;;-44
2021/01/17 00:20:48;;;;;;;5.05;3.41;;;;;;;17.95;42.50;100588.44;;;;-44
2021/01/17 00:23:49;;;;;;;4.27;3.49;;;;;;;17.94;42.50;100580.50;;;;-43
2021/01/17 00:26:48;;;;;;;3.61;3.31;;;;;;;17.92;42.49;100575.44;;;;-44
2021/01/17 00:29:48;;;;;;;3.64;3.34;;;;;;;17.90;42.52;100570.70;;;;-44
2021/01/17 00:32:49;;;;;;;3.67;3.37;;;;;;;17.87;42.58;100572.22;;;;-44
2021/01/17 00:35:48;;;;;;;3.99;3.36;;;;;;;17.86;42.64;100575.27;;;;-44
2021/01/17 00:38:48;;;;;;;3.61;3.31;;;;;;;17.84;42.52;100569.56;;;;-44
2021/01/17 00:41:49;;;;;;;3.88;3.48;;;;;;;17.82;42.41;100572.34;;;;-44
2021/01/17 00:44:48;;;;;;;3.53;3.23;;;;;;;17.80;42.56;100565.34;;;;-43
2021/01/17 00:47:49;;;;;;;3.82;3.45;;;;;;;17.78;42.64;100558.61;;;;-44
2021/01/17 00:50:49;;;;;;;3.42;3.12;;;;;;;17.76;42.63;100556.03;;;;-44
2021/01/17 00:53:48;;;;;;;3.65;3.35;;;;;;;17.74;42.61;100549.92;;;;-44
2021/01/17 00:56:48;;;;;;;3.71;3.41;;;;;;;17.72;42.61;100545.19;;;;-43
2021/01/17 00:59:49;;;;;;;3.47;3.17;;;;;;;17.71;42.64;100541.14;;;;-44
2021/01/17 01:02:48;;;;;;;3.80;3.50;;;;;;;17.68;42.59;100535.73;;;;-44
2021/01/17 01:05:49;;;;;;;4.02;3.57;;;;;;;17.65;42.69;100530.19;;;;-44
2021/01/17 01:08:49;;;;;;;4.73;3.60;;;;;;;17.65;42.63;100529.38;;;;-44
2021/01/17 01:11:48;;;;;;;3.80;3.50;;;;;;;17.62;42.72;100517.92;;;;-44
2021/01/17 01:14:48;;;;;;;3.72;3.42;;;;;;;17.60;42.71;100517.64;;;;-44
2021/01/17 01:17:49;;;;;;;3.62;3.32;;;;;;;17.60;42.69;100514.38;;;;-44
2021/01/17 01:20:48;;;;;;;3.51;3.21;;;;;;;17.58;42.67;100505.95;;;;-44
2021/01/17 01:23:49;;;;;;;3.58;3.28;;;;;;;17.56;42.75;100500.00;;;;-44
2021/01/17 01:26:49;;;;;;;3.60;3.30;;;;;;;17.54;42.65;100494.13;;;;-44
2021/01/17 01:29:48;;;;;;;3.73;3.39;;;;;;;17.52;42.67;100490.70;;;;-44
2021/01/17 01:32:48;;;;;;;3.61;3.31;;;;;;;17.51;42.71;100482.24;;;;-44
2021/01/17 01:35:48;;;;;;;3.99;3.43;;;;;;;17.48;42.76;100482.21;;;;-44
2021/01/17 01:38:48;;;;;;;3.57;3.27;;;;;;;17.47;42.74;100482.10;;;;-44
2021/01/17 01:41:49;;;;;;;3.50;3.20;;;;;;;17.47;42.64;100478.08;;;;-44
2021/01/17 01:44:48;;;;;;;3.63;3.33;;;;;;;17.45;42.72;100468.63;;;;-44
2021/01/17 01:47:48;;;;;;;3.65;3.35;;;;;;;17.43;42.75;100470.38;;;;-43
2021/01/17 01:50:49;;;;;;;3.75;3.45;;;;;;;17.41;42.76;100467.30;;;;-44
2021/01/17 01:53:48;;;;;;;3.81;3.50;;;;;;;17.39;42.69;100462.00;;;;-44
2021/01/17 01:56:48;;;;;;;3.95;3.45;;;;;;;17.38;42.78;100457.43;;;;-44
2021/01/17 01:59:49;;;;;;;3.54;3.24;;;;;;;17.36;42.77;100451.56;;;;-44
2021/01/17 02:02:48;;;;;;;3.65;3.35;;;;;;;17.35;42.81;100449.75;;;;-44
2021/01/17 02:05:48;;;;;;;3.97;3.33;;;;;;;17.33;42.71;100452.75;;;;-44
2021/01/17 02:08:49;;;;;;;3.55;3.25;;;;;;;17.31;42.79;100452.64;;;;-44
2021/01/17 02:11:48;;;;;;;3.89;3.59;;;;;;;17.29;42.79;100452.61;;;;-44
2021/01/17 02:14:48;;;;;;;3.51;3.21;;;;;;;17.29;42.79;100460.14;;;;-44
2021/01/17 02:17:49;;;;;;;3.79;3.49;;;;;;;17.27;42.82;100460.52;;;;-46
2021/01/17 02:20:48;;;;;;;3.54;3.24;;;;;;;17.25;42.73;100449.06;;;;-46
2021/01/17 02:23:48;;;;;;;3.63;3.33;;;;;;;17.24;42.72;100448.71;;;;-46
2021/01/17 02:26:48;;;;;;;3.69;3.39;;;;;;;17.24;42.72;100447.98;;;;-43
2021/01/17 02:29:48;;;;;;;3.51;3.21;;;;;;;17.22;42.74;100453.53;;;;-46
2021/01/17 02:32:49;;;;;;;3.55;3.25;;;;;;;17.21;42.79;100453.30;;;;-46
2021/01/17 02:35:48;;;;;;;3.62;3.32;;;;;;;17.19;42.81;100453.66;;;;-46
2021/01/17 02:38:48;;;;;;;3.58;3.28;;;;;;;17.19;42.76;100457.71;;;;-50
2021/01/17 02:41:48;;;;;;;4.83;3.49;;;;;;;17.17;42.67;100462.54;;;;-50
2021/01/17 02:44:48;;;;;;;3.62;3.32;;;;;;;17.16;42.79;100460.67;;;;-50
2021/01/17 02:47:48;;;;;;;3.88;3.58;;;;;;;17.15;42.77;100463.64;;;;-51
2021/01/17 02:50:49;;;;;;;3.75;3.43;;;;;;;17.14;42.79;100456.11;;;;-51
2021/01/17 02:53:48;;;;;;;3.76;3.46;;;;;;;17.13;42.77;100456.41;;;;-44
2021/01/17 02:56:48;;;;;;;3.89;3.55;;;;;;;17.11;42.78;100455.48;;;;-46
2021/01/17 02:59:48;;;;;;;3.59;3.29;;;;;;;17.10;42.84;100456.29;;;;-46
2021/01/17 03:02:50;;;;;;;3.47;3.17;;;;;;;17.09;42.76;100453.91;;;;-50
2021/01/17 03:05:48;;;;;;;3.59;3.29;;;;;;;17.07;42.74;100457.03;;;;-44
2021/01/17 03:08:49;;;;;;;3.83;3.53;;;;;;;17.06;42.78;100450.23;;;;-45
2021/01/17 03:11:48;;;;;;;3.83;3.53;;;;;;;17.05;42.79;100444.37;;;;-50
2021/01/17 03:14:48;;;;;;;3.69;3.39;;;;;;;17.04;42.79;100437.65;;;;-50
2021/01/17 03:17:49;;;;;;;4.13;3.76;;;;;;;17.03;42.75;100432.92;;;;-44
2021/01/17 03:20:48;;;;;;;3.63;3.33;;;;;;;17.01;42.79;100427.55;;;;-44
2021/01/17 03:23:48;;;;;;;3.64;3.26;;;;;;;17.00;42.79;100424.88;;;;-44
2021/01/17 03:26:49;;;;;;;3.96;3.60;;;;;;;17.00;42.81;100422.12;;;;-44
2021/01/17 03:29:48;;;;;;;3.60;3.30;;;;;;;16.98;42.81;100419.01;;;;-44
2021/01/17 03:32:48;;;;;;;3.53;3.22;;;;;;;16.98;42.71;100416.26;;;;-44
2021/01/17 03:35:48;;;;;;;3.62;3.32;;;;;;;16.96;42.81;100409.42;;;;-44
2021/01/17 03:38:48;;;;;;;3.65;3.35;;;;;;;16.95;42.77;100413.69;;;;-44
2021/01/17 03:41:48;;;;;;;3.80;3.47;;;;;;;16.94;42.81;100408.50;;;;-44
2021/01/17 03:44:49;;;;;;;3.49;3.19;;;;;;;16.93;42.77;100412.30;;;;-50
2021/01/17 03:47:48;;;;;;;4.15;3.81;;;;;;;16.92;42.78;100414.22;;;;-46
2021/01/17 03:50:48;;;;;;;3.62;3.32;;;;;;;16.90;42.75;100408.11;;;;-45
2021/01/17 03:53:48;;;;;;;3.51;3.21;;;;;;;16.90;42.93;100416.13;;;;-51
2021/01/17 03:56:48;;;;;;;3.56;3.26;;;;;;;16.88;42.80;100414.64;;;;-51
2021/01/17 03:59:48;;;;;;;3.57;3.27;;;;;;;16.87;42.90;100416.58;;;;-46
2021/01/17 04:02:49;;;;;;;3.75;3.45;;;;;;;16.86;42.92;100421.40;;;;-46
2021/01/17 04:05:48;;;;;;;3.77;3.47;;;;;;;16.85;42.91;100420.72;;;;-44
2021/01/17 04:08:48;;;;;;;3.84;3.54;;;;;;;16.84;42.82;100422.09;;;;-50
2021/01/17 04:11:49;;;;;;;3.56;3.26;;;;;;;16.83;42.85;100425.00;;;;-50
2021/01/17 04:14:48;;;;;;;4.02;3.63;;;;;;;16.83;42.82;100429.42;;;;-50
2021/01/17 04:17:48;;;;;;;3.65;3.35;;;;;;;16.82;42.87;100430.16;;;;-45
2021/01/17 04:20:49;;;;;;;3.65;3.35;;;;;;;16.80;42.87;100424.91;;;;-45
2021/01/17 04:23:48;;;;;;;3.74;3.43;;;;;;;16.80;42.83;100429.20;;;;-50
2021/01/17 04:26:48;;;;;;;3.55;3.25;;;;;;;16.79;42.77;100435.27;;;;-44
2021/01/17 04:29:48;;;;;;;3.97;3.58;;;;;;;16.77;42.94;100434.18;;;;-44
2021/01/17 04:32:48;;;;;;;3.77;3.47;;;;;;;16.76;42.88;100426.62;;;;-44
2021/01/17 04:35:49;;;;;;;3.61;3.31;;;;;;;16.74;42.83;100427.80;;;;-46
2021/01/17 04:38:48;;;;;;;3.74;3.44;;;;;;;16.74;42.88;100426.42;;;;-45
2021/01/17 04:41:48;;;;;;;3.67;3.37;;;;;;;16.73;42.85;100428.36;;;;-44
2021/01/17 04:44:48;;;;;;;3.91;3.54;;;;;;;16.72;42.95;100427.03;;;;-44
2021/01/17 04:47:48;;;;;;;3.74;3.44;;;;;;;16.72;42.89;100430.03;;;;-50
2021/01/17 04:50:48;;;;;;;3.78;3.47;;;;;;;16.71;42.93;100431.89;;;;-50
2021/01/17 04:53:48;;;;;;;3.76;3.46;;;;;;;16.70;42.97;100432.09;;;;-44
2021/01/17 04:56:48;;;;;;;3.61;3.31;;;;;;;16.69;42.96;100438.89;;;;-46
2021/01/17 04:59:48;;;;;;;3.80;3.50;;;;;;;16.67;42.91;100439.42;;;;-46
2021/01/17 05:02:48;;;;;;;3.56;3.26;;;;;;;16.66;42.89;100436.80;;;;-46
2021/01/17 05:05:48;;;;;;;3.61;3.31;;;;;;;16.66;43.03;100436.72;;;;-46
2021/01/17 05:08:48;;;;;;;3.95;3.63;;;;;;;16.64;42.95;100440.52;;;;-46
2021/01/17 05:11:48;;;;;;;3.78;3.48;;;;;;;16.65;42.95;100439.95;;;;-46
2021/01/17 05:14:48;;;;;;;3.77;3.47;;;;;;;16.63;42.91;100437.57;;;;-46
2021/01/17 05:17:48;;;;;;;3.49;3.20;;;;;;;16.63;42.88;100432.47;;;;-45
2021/01/17 05:20:48;;;;;;;3.74;3.44;;;;;;;16.62;42.92;100436.08;;;;-44
2021/01/17 05:23:48;;;;;;;3.81;3.51;;;;;;;16.62;42.85;100434.78;;;;-45
2021/01/17 05:26:48;;;;;;;3.67;3.37;;;;;;;16.61;42.92;100436.48;;;;-47
2021/01/17 05:29:49;;;;;;;3.86;3.49;;;;;;;16.59;42.92;100436.53;;;;-50
2021/01/17 05:32:48;;;;;;;3.80;3.50;;;;;;;16.59;42.98;100441.30;;;;-44
2021/01/17 05:35:48;;;;;;;3.50;3.20;;;;;;;16.59;42.93;100438.47;;;;-45
2021/01/17 05:38:48;;;;;;;3.71;3.41;;;;;;;16.58;42.97;100438.92;;;;-44
2021/01/17 05:41:48;;;;;;;3.88;3.55;;;;;;;16.57;42.90;100441.02;;;;-46
2021/01/17 05:44:48;;;;;;;3.76;3.41;;;;;;;16.56;42.90;100442.15;;;;-46
2021/01/17 05:47:48;;;;;;;4.23;3.83;;;;;;;16.55;42.92;100441.55;;;;-46
2021/01/17 05:50:48;;;;;;;3.86;3.56;;;;;;;16.54;42.96;100441.55;;;;-50
2021/01/17 05:53:48;;;;;;;3.69;3.39;;;;;;;16.54;42.95;100442.03;;;;-50
2021/01/17 05:56:48;;;;;;;3.80;3.50;;;;;;;16.53;43.04;100446.04;;;;-50
2021/01/17 05:59:48;;;;;;;3.99;3.60;;;;;;;16.53;42.98;100449.12;;;;-50
2021/01/17 06:02:48;;;;;;;3.92;3.60;;;;;;;16.53;42.95;100450.81;;;;-50
2021/01/17 06:05:48;;;;;;;3.70;3.40;;;;;;;16.52;43.03;100452.55;;;;-46
2021/01/17 06:08:48;;;;;;;3.88;3.57;;;;;;;16.51;42.97;100450.05;;;;-44
2021/01/17 06:11:48;;;;;;;3.75;3.45;;;;;;;16.50;42.85;100450.41;;;;-50
2021/01/17 06:14:48;;;;;;;3.66;3.36;;;;;;;16.49;42.91;100448.72;;;;-50
2021/01/17 06:17:48;;;;;;;3.69;3.39;;;;;;;16.50;42.95;100451.17;;;;-46
2021/01/17 06:20:48;;;;;;;9.41;5.78;;;;;;;16.42;42.08;100458.06;;;;-47
2021/01/17 06:23:49;;;;;;;9.31;8.35;;;;;;;16.31;41.00;100454.27;;;;-47
2021/01/17 06:26:48;;;;;;;11.55;9.65;;;;;;;16.19;40.78;100452.94;;;;-44
2021/01/17 06:29:48;;;;;;;11.67;10.00;;;;;;;16.11;40.41;100452.69;;;;-47
2021/01/17 06:32:48;;;;;;;11.87;10.67;;;;;;;16.03;40.17;100449.21;;;;-45
2021/01/17 06:35:48;;;;;;;12.05;10.44;;;;;;;15.96;40.13;100446.16;;;;-44
2021/01/17 06:38:48;;;;;;;13.07;11.68;;;;;;;15.88;39.89;100444.54;;;;-44
2021/01/17 06:41:48;;;;;;;12.79;11.49;;;;;;;15.83;40.04;100446.12;;;;-50
2021/01/17 06:44:48;;;;;;;12.84;11.47;;;;;;;15.79;39.89;100447.33;;;;-44
2021/01/17 06:47:48;;;;;;;11.83;10.63;;;;;;;15.82;40.35;100443.85;;;;-43
2021/01/17 06:50:48;;;;;;;11.75;10.13;;;;;;;15.91;40.71;100444.43;;;;-43
2021/01/17 06:53:48;;;;;;;11.77;9.28;;;;;;;15.99;40.82;100444.52;;;;-50
2021/01/17 06:56:48;;;;;;;10.49;8.48;;;;;;;16.05;41.07;100454.02;;;;-50
2021/01/17 06:59:48;;;;;;;9.29;7.98;;;;;;;16.12;41.32;100462.91;;;;-46
2021/01/17 07:02:48;;;;;;;8.49;7.61;;;;;;;16.19;41.59;100467.48;;;;-45
2021/01/17 07:05:48;;;;;;;7.59;6.86;;;;;;;16.25;41.61;100465.07;;;;-45
2021/01/17 07:08:48;;;;;;;7.53;6.51;;;;;;;16.31;41.76;100459.93;;;;-50
2021/01/17 07:11:49;;;;;;;6.63;5.95;;;;;;;16.38;41.77;100465.02;;;;-50
2021/01/17 07:14:48;;;;;;;6.57;5.88;;;;;;;16.44;41.79;100469.34;;;;-44
2021/01/17 07:17:48;;;;;;;6.44;5.60;;;;;;;16.51;41.91;100476.26;;;;-46
2021/01/17 07:20:48;;;;;;;5.69;5.19;;;;;;;16.56;42.00;100477.34;;;;-50
2021/01/17 07:23:48;;;;;;;6.32;5.15;;;;;;;16.62;42.11;100479.72;;;;-50
2021/01/17 07:26:48;;;;;;;5.76;5.16;;;;;;;16.67;42.20;100484.89;;;;-46
2021/01/17 07:29:48;;;;;;;5.23;4.73;;;;;;;16.73;42.25;100489.53;;;;-43
2021/01/17 07:32:48;;;;;;;5.40;4.90;;;;;;;16.77;42.33;100495.68;;;;-46
2021/01/17 07:35:48;;;;;;;5.12;4.62;;;;;;;16.82;42.38;100500.89;;;;-46
2021/01/17 07:38:49;;;;;;;4.95;4.46;;;;;;;16.87;42.43;100496.34;;;;-43
2021/01/17 07:41:48;;;;;;;5.43;4.55;;;;;;;16.89;42.47;100501.33;;;;-43
2021/01/17 07:44:48;;;;;;;4.54;4.14;;;;;;;16.93;42.45;100505.69;;;;-44
2021/01/17 07:47:48;;;;;;;4.76;4.36;;;;;;;16.96;42.50;100509.96;;;;-45
2021/01/17 07:50:48;;;;;;;4.99;4.23;;;;;;;16.99;42.55;100508.06;;;;-45
2021/01/17 07:53:48;;;;;;;4.74;4.25;;;;;;;17.01;42.55;100512.79;;;;-45
2021/01/17 07:56:48;;;;;;;4.25;3.85;;;;;;;17.02;42.56;100515.02;;;;-44
2021/01/17 07:59:48;;;;;;;4.53;4.13;;;;;;;17.05;42.57;100518.53;;;;-46
2021/01/17 08:02:49;;;;;;;4.63;4.01;;;;;;;17.06;42.56;100521.31;;;;-46
2021/01/17 08:05:49;;;;;;;4.57;4.17;;;;;;;17.07;42.54;100527.47;;;;-46
2021/01/17 08:08:48;;;;;;;4.40;4.00;;;;;;;17.07;42.49;100537.59;;;;-43
2021/01/17 08:11:49;;;;;;;4.43;4.03;;;;;;;17.08;42.44;100536.38;;;;-50
2021/01/17 08:14:48;;;;;;;4.87;4.21;;;;;;;17.09;42.51;100537.47;;;;-46
2021/01/17 08:17:48;;;;;;;4.37;3.97;;;;;;;17.10;42.43;100538.28;;;;-46
2021/01/17 08:20:48;;;;;;;4.23;3.77;;;;;;;17.09;42.40;100538.76;;;;-50
2021/01/17 08:23:48;;;;;;;4.55;4.03;;;;;;;17.09;42.47;100540.30;;;;-45
2021/01/17 08:27:48;;;;;;;4.15;3.80;;;;;;;17.10;42.44;100549.77;;;;-45
2021/01/17 08:30:48;;;;;;;3.86;3.46;;;;;;;17.09;42.44;100551.95;;;;-44
2021/01/17 08:33:48;;;;;;;4.06;3.74;;;;;;;17.08;42.51;100551.71;;;;-50
2021/01/17 08:36:48;;;;;;;4.14;3.74;;;;;;;17.06;42.48;100552.00;;;;-51
2021/01/17 08:39:51;;;;;;;4.09;3.69;;;;;;;17.08;42.49;100555.33;;;;-50
2021/01/17 08:42:48;;;;;;;3.93;3.63;;;;;;;17.07;42.42;100554.27;;;;-50
2021/01/17 08:45:48;;;;;;;3.90;3.60;;;;;;;17.07;42.50;100551.59;;;;-51
2021/01/17 08:48:48;;;;;;;4.24;3.84;;;;;;;17.07;42.44;100552.89;;;;-45
2021/01/17 08:51:48;;;;;;;4.19;3.79;;;;;;;17.06;42.50;100556.86;;;;-44
2021/01/17 08:54:48;;;;;;;3.98;3.66;;;;;;;17.06;42.53;100562.61;;;;-43
2021/01/17 08:57:49;;;;;;;4.07;3.64;;;;;;;17.06;42.46;100566.90;;;;-43
2021/01/17 09:00:48;;;;;;;4.17;3.77;;;;;;;17.06;42.46;100569.33;;;;-51
2021/01/17 09:03:49;;;;;;;4.11;3.73;;;;;;;17.06;42.54;100570.78;;;;-50
2021/01/17 09:06:49;;;;;;;4.04;3.71;;;;;;;17.06;42.49;100572.08;;;;-50
2021/01/17 09:09:48;;;;;;;4.16;3.76;;;;;;;17.06;42.50;100574.83;;;;-50
2021/01/17 09:12:48;;;;;;;4.03;3.70;;;;;;;17.06;42.51;100580.02;;;;-43
2021/01/17 09:15:48;;;;;;;3.98;3.63;;;;;;;17.06;42.52;100583.09;;;;-50
2021/01/17 09:18:48;;;;;;;3.81;3.49;;;;;;;17.06;42.53;100593.05;;;;-46
2021/01/17 09:21:48;;;;;;;4.21;3.81;;;;;;;17.07;42.57;100592.56;;;;-46
2021/01/17 09:24:48;;;;;;;3.98;3.58;;;;;;;17.06;42.64;100592.72;;;;-53
2021/01/17 09:27:48;;;;;;;4.26;3.78;;;;;;;17.11;42.83;100591.91;;;;-51
2021/01/17 09:30:49;;;;;;;6.57;3.55;;;;;;;17.12;42.67;100598.99;;;;-53
2021/01/17 09:33:48;;;;;;;4.88;3.45;;;;;;;17.13;42.64;100602.39;;;;-52
2021/01/17 09:36:48;;;;;;;4.83;3.50;;;;;;;17.14;42.54;100604.02;;;;-51
2021/01/17 09:39:48;;;;;;;3.83;3.44;;;;;;;17.17;42.69;100605.95;;;;-51
2021/01/17 09:42:48;;;;;;;4.35;3.27;;;;;;;17.19;42.64;100616.28;;;;-52
2021/01/17 09:45:48;;;;;;;3.63;3.29;;;;;;;17.20;42.60;100617.41;;;;-51
2021/01/17 09:48:48;;;;;;;5.65;3.68;;;;;;;17.23;43.04;100619.99;;;;-51
2021/01/17 09:51:48;;;;;;;8.16;4.22;;;;;;;17.24;43.03;100625.75;;;;-55
2021/01/17 09:54:48;;;;;;;9.43;4.63;;;;;;;17.24;42.40;100627.00;;;;-53
2021/01/17 09:57:48;;;;;;;9.22;4.67;;;;;;;17.25;42.27;100632.42;;;;-57
2021/01/17 10:00:48;;;;;;;4.97;4.47;;;;;;;17.27;42.15;100636.43;;;;-58
2021/01/17 10:03:48;;;;;;;6.16;4.89;;;;;;;17.30;41.82;100638.17;;;;-55
2021/01/17 10:06:48;;;;;;;7.79;4.53;;;;;;;17.33;42.25;100640.02;;;;-53
2021/01/17 10:09:48;;;;;;;4.76;3.99;;;;;;;17.37;42.32;100639.94;;;;-60
2021/01/17 10:12:48;;;;;;;5.04;3.78;;;;;;;17.40;42.41;100631.47;;;;-53
2021/01/17 10:15:48;;;;;;;5.10;3.59;;;;;;;17.43;42.50;100631.86;;;;-54
2021/01/17 10:18:48;;;;;;;4.17;3.77;;;;;;;17.47;42.55;100632.06;;;;-51
2021/01/17 10:21:48;;;;;;;5.37;3.83;;;;;;;17.54;43.14;100634.15;;;;-57
2021/01/17 10:24:48;;;;;;;4.87;3.91;;;;;;;17.58;43.33;100628.47;;;;-59
2021/01/17 10:27:48;;;;;;;4.27;3.63;;;;;;;17.62;43.51;100632.83;;;;-59
2021/01/17 10:30:48;;;;;;;5.01;3.71;;;;;;;17.68;43.52;100637.23;;;;-56
2021/01/17 10:33:49;;;;;;;4.11;3.71;;;;;;;17.73;43.50;100639.41;;;;-55
2021/01/17 10:36:48;;;;;;;5.03;3.55;;;;;;;17.77;43.50;100635.74;;;;-56
2021/01/17 10:39:48;;;;;;;4.75;3.62;;;;;;;17.83;43.51;100637.98;;;;-58
2021/01/17 10:42:48;;;;;;;3.99;3.53;;;;;;;17.87;43.50;100641.86;;;;-54
2021/01/17 10:45:48;;;;;;;5.17;3.61;;;;;;;17.93;43.66;100640.63;;;;-52
2021/01/17 10:48:48;;;;;;;4.69;3.60;;;;;;;17.95;43.13;100636.15;;;;-55
2021/01/17 10:51:48;;;;;;;7.51;3.83;;;;;;;17.99;43.31;100635.53;;;;-51
2021/01/17 10:54:48;;;;;;;3.71;3.37;;;;;;;18.02;43.46;100633.65;;;;-51
2021/01/17 10:57:48;;;;;;;6.52;3.63;;;;;;;18.06;43.44;100632.01;;;;-54
2021/01/17 11:00:48;;;;;;;4.07;3.49;;;;;;;18.09;43.40;100627.66;;;;-57
2021/01/17 11:03:48;;;;;;;6.21;3.39;;;;;;;18.15;43.42;100627.67;;;;-53
2021/01/17 11:06:48;;;;;;;4.93;3.48;;;;;;;18.18;43.41;100630.45;;;;-53
2021/01/17 11:09:48;;;;;;;3.54;3.24;;;;;;;18.22;43.41;100633.79;;;;-51
2021/01/17 11:12:49;;;;;;;4.92;3.31;;;;;;;18.25;43.55;100629.77;;;;-53
2021/01/17 11:15:48;;;;;;;4.66;3.32;;;;;;;18.31;43.44;100634.96;;;;-52
2021/01/17 11:18:49;;;;;;;4.09;3.37;;;;;;;18.34;43.40;100630.20;;;;-50
2021/01/17 11:21:48;;;;;;;4.32;3.29;;;;;;;18.36;43.47;100629.02;;;;-49
2021/01/17 11:24:48;;;;;;;4.71;3.52;;;;;;;18.39;43.37;100632.23;;;;-55
2021/01/17 11:27:48;;;;;;;4.03;3.29;;;;;;;18.43;43.48;100636.56;;;;-51
2021/01/17 11:30:48;;;;;;;3.53;3.23;;;;;;;18.44;43.42;100634.48;;;;-55
2021/01/17 11:33:48;;;;;;;3.50;3.20;;;;;;;18.48;43.48;100628.94;;;;-52
2021/01/17 11:36:48;;;;;;;3.87;3.33;;;;;;;18.52;43.49;100632.56;;;;-51
2021/01/17 11:39:48;;;;;;;3.66;3.08;;;;;;;18.56;43.44;100637.48;;;;-49
2021/01/17 11:42:48;;;;;;;3.61;3.11;;;;;;;18.58;43.52;100636.05;;;;-48
2021/01/17 11:45:48;;;;;;;3.79;3.41;;;;;;;18.60;43.37;100635.59;;;;-59
2021/01/17 11:48:48;;;;;;;3.74;3.30;;;;;;;18.60;43.01;100637.54;;;;-58
2021/01/17 11:51:48;;;;;;;3.44;3.14;;;;;;;18.61;43.00;100633.96;;;;-59
2021/01/17 11:54:48;;;;;;;3.81;3.25;;;;;;;18.62;42.92;100632.37;;;;-57
2021/01/17 11:57:48;;;;;;;3.29;2.99;;;;;;;18.61;42.81;100628.61;;;;-59
2021/01/17 12:00:48;;;;;;;3.42;3.09;;;;;;;18.62;42.73;100629.77;;;;-58
2021/01/17 12:03:49;;;;;;;3.23;2.94;;;;;;;18.62;42.78;100635.12;;;;-59
2021/01/17 12:06:48;;;;;;;3.11;2.81;;;;;;;18.61;42.79;100629.91;;;;-59
2021/01/17 12:09:48;;;;;;;3.06;2.75;;;;;;;18.62;42.74;100633.09;;;;-59
2021/01/17 12:12:48;;;;;;;3.82;2.88;;;;;;;18.63;42.70;100633.83;;;;-57
2021/01/17 12:15:48;;;;;;;3.47;3.03;;;;;;;18.63;42.65;100634.96;;;;-59
2021/01/17 12:18:48;;;;;;;3.25;2.95;;;;;;;18.64;42.62;100634.83;;;;-58
2021/01/17 12:21:49;;;;;;;3.07;2.81;;;;;;;18.66;42.63;100640.78;;;;-59
2021/01/17 12:24:48;;;;;;;3.40;2.95;;;;;;;18.66;42.57;100644.52;;;;-59
2021/01/17 12:27:48;;;;;;;2.86;2.66;;;;;;;18.66;42.57;100641.76;;;;-59
2021/01/17 12:30:48;;;;;;;3.59;2.91;;;;;;;18.67;42.56;100645.08;;;;-57
2021/01/17 12:33:48;;;;;;;3.17;2.87;;;;;;;18.68;42.56;100649.01;;;;-59
2021/01/17 12:36:48;;;;;;;3.38;3.07;;;;;;;18.69;42.51;100649.25;;;;-59
2021/01/17 12:39:48;;;;;;;3.12;2.82;;;;;;;18.70;42.45;100644.41;;;;-58
2021/01/17 12:42:48;;;;;;;3.03;2.83;;;;;;;18.71;42.42;100640.10;;;;-58
2021/01/17 12:45:48;;;;;;;3.17;2.87;;;;;;;18.72;42.52;100647.67;;;;-59
2021/01/17 12:48:48;;;;;;;3.33;3.03;;;;;;;18.74;42.44;100644.34;;;;-59
2021/01/17 12:51:48;;;;;;;2.99;2.69;;;;;;;18.74;42.43;100636.55;;;;-59
2021/01/17 12:54:48;;;;;;;2.82;2.59;;;;;;;18.76;42.43;100640.15;;;;-59
2021/01/17 12:57:48;;;;;;;3.70;2.96;;;;;;;18.75;42.40;100641.13;;;;-58
2021/01/17 13:00:48;;;;;;;3.21;2.91;;;;;;;18.76;42.49;100638.48;;;;-59
2021/01/17 13:03:48;;;;;;;2.97;2.71;;;;;;;18.77;42.42;100641.31;;;;-58
2021/01/17 13:06:49;;;;;;;2.97;2.70;;;;;;;18.78;42.38;100640.94;;;;-59
2021/01/17 13:09:48;;;;;;;3.09;2.83;;;;;;;18.80;42.36;100639.34;;;;-58
2021/01/17 13:12:48;;;;;;;3.18;2.76;;;;;;;18.80;42.36;100634.30;;;;-58
2021/01/17 13:15:48;;;;;;;3.11;2.81;;;;;;;18.81;42.39;100640.02;;;;-59
2021/01/17 13:18:50;;;;;;;3.15;2.85;;;;;;;18.81;42.29;100641.88;;;;-58
2021/01/17 13:21:48;;;;;;;3.08;2.81;;;;;;;18.82;42.32;100638.06;;;;-58
2021/01/17 13:24:48;;;;;;;2.81;2.49;;;;;;;18.83;42.31;100638.33;;;;-59
2021/01/17 13:27:48;;;;;;;3.04;2.73;;;;;;;18.84;42.33;100636.87;;;;-57
2021/01/17 13:30:49;;;;;;;5.37;2.82;;;;;;;18.89;42.33;100649.45;;;;-47
2021/01/17 13:33:48;;;;;;;10.31;3.09;;;;;;;18.90;42.69;100659.92;;;;-48
2021/01/17 13:36:48;;;;;;;6.27;2.95;;;;;;;18.92;42.76;100659.70;;;;-55
2021/01/17 13:39:48;;;;;;;3.47;2.64;;;;;;;18.94;42.77;100666.63;;;;-58
2021/01/17 13:42:48;;;;;;;3.09;2.79;;;;;;;18.97;42.96;100675.70;;;;-57
2021/01/17 13:45:48;;;;;;;4.99;2.87;;;;;;;18.98;42.86;100680.57;;;;-55
2021/01/17 13:48:48;;;;;;;3.35;2.97;;;;;;;19.02;42.95;100681.35;;;;-54
2021/01/17 13:51:48;;;;;;;4.48;2.83;;;;;;;19.04;42.90;100676.74;;;;-56
2021/01/17 13:54:48;;;;;;;4.01;2.85;;;;;;;19.09;42.91;100684.05;;;;-52
2021/01/17 13:57:48;;;;;;;3.08;2.79;;;;;;;19.11;42.95;100683.06;;;;-53
2021/01/17 14:00:48;;;;;;;2.95;2.66;;;;;;;19.14;43.00;100685.55;;;;-52
2021/01/17 14:03:48;;;;;;;4.38;2.95;;;;;;;19.18;42.90;100694.30;;;;-50
2021/01/17 14:06:48;;;;;;;2.93;2.72;;;;;;;19.20;43.03;100691.06;;;;-57
2021/01/17 14:09:48;;;;;;;2.99;2.61;;;;;;;19.20;42.89;100697.73;;;;-55
2021/01/17 14:12:48;;;;;;;3.15;2.85;;;;;;;19.22;43.06;100702.55;;;;-58
2021/01/17 14:15:48;;;;;;;2.83;2.61;;;;;;;19.22;42.86;100704.25;;;;-58
2021/01/17 14:18:48;;;;;;;3.40;2.53;;;;;;;19.22;42.94;100707.34;;;;-55
2021/01/17 14:21:48;;;;;;;3.77;2.69;;;;;;;19.24;43.01;100713.70;;;;-52
2021/01/17 14:24:48;;;;;;;3.06;2.60;;;;;;;19.25;43.08;100720.28;;;;-55
2021/01/17 14:27:48;;;;;;;3.01;2.63;;;;;;;19.27;43.02;100730.38;;;;-61
2021/01/17 14:30:48;;;;;;;2.79;2.59;;;;;;;19.28;42.91;100730.86;;;;-52
2021/01/17 14:33:48;;;;;;;3.17;2.42;;;;;;;19.28;43.13;100738.86;;;;-53
2021/01/17 14:36:48;;;;;;;3.12;2.62;;;;;;;19.32;42.97;100744.27;;;;-51
2021/01/17 14:39:48;;;;;;;2.84;2.56;;;;;;;19.33;42.99;100751.02;;;;-50
2021/01/17 14:42:48;;;;;;;3.33;2.39;;;;;;;19.34;42.98;100757.19;;;;-53
2021/01/17 14:45:48;;;;;;;3.77;2.61;;;;;;;19.33;43.13;100759.14;;;;-50
2021/01/17 14:48:48;;;;;;;2.60;2.37;;;;;;;19.36;43.13;100763.25;;;;-52
2021/01/17 14:51:48;;;;;;;5.36;2.85;;;;;;;19.36;43.00;100765.77;;;;-47
2021/01/17 14:54:48;;;;;;;3.35;2.60;;;;;;;19.37;42.93;100772.68;;;;-52
2021/01/17 14:57:48;;;;;;;2.71;2.45;;;;;;;19.39;43.06;100773.59;;;;-57
2021/01/17 15:00:49;;;;;;;2.87;2.43;;;;;;;19.41;43.05;100776.70;;;;-51
2021/01/17 15:03:48;;;;;;;2.78;2.53;;;;;;;19.40;43.01;100780.98;;;;-51
2021/01/17 15:06:48;;;;;;;3.36;2.60;;;;;;;19.41;43.01;100788.41;;;;-56
2021/01/17 15:09:48;;;;;;;5.03;2.45;;;;;;;19.40;42.74;100789.15;;;;-55
2021/01/17 15:12:48;;;;;;;4.45;2.60;;;;;;;19.42;43.29;100793.23;;;;-55
2021/01/17 15:15:48;;;;;;;4.65;2.57;;;;;;;19.45;43.73;100798.45;;;;-48
2021/01/17 15:18:48;;;;;;;4.09;2.58;;;;;;;19.45;43.29;100801.79;;;;-47
2021/01/17 15:21:48;;;;;;;4.06;2.54;;;;;;;19.49;43.62;100807.61;;;;-58
2021/01/17 15:24:48;;;;;;;3.48;2.36;;;;;;;19.51;43.61;100814.88;;;;-59
2021/01/17 15:27:48;;;;;;;3.27;2.47;;;;;;;19.55;43.50;100818.01;;;;-52
2021/01/17 15:30:48;;;;;;;3.14;2.59;;;;;;;19.56;43.80;100824.27;;;;-56
2021/01/17 15:33:48;;;;;;;5.46;2.55;;;;;;;19.59;43.72;100823.75;;;;-50
2021/01/17 15:36:48;;;;;;;4.52;2.61;;;;;;;19.60;44.00;100824.56;;;;-47
2021/01/17 15:39:48;;;;;;;3.10;2.41;;;;;;;19.64;44.00;100829.00;;;;-56
2021/01/17 15:42:48;;;;;;;2.69;2.41;;;;;;;19.66;44.19;100831.05;;;;-53
2021/01/17 15:45:48;;;;;;;3.36;2.47;;;;;;;19.66;44.35;100834.47;;;;-53
2021/01/17 15:48:48;;;;;;;3.39;2.43;;;;;;;19.64;44.09;100846.48;;;;-53
2021/01/17 15:51:48;;;;;;;5.44;3.18;;;;;;;19.60;43.33;100855.70;;;;-51
2021/01/17 15:54:48;;;;;;;8.09;2.91;;;;;;;19.66;43.83;100852.84;;;;-54
2021/01/17 15:57:48;;;;;;;8.55;2.66;;;;;;;19.69;43.94;100852.41;;;;-54
2021/01/17 16:00:48;;;;;;;4.09;2.79;;;;;;;19.72;43.53;100861.48;;;;-51
2021/01/17 16:03:48;;;;;;;4.03;2.57;;;;;;;19.69;43.17;100862.88;;;;-58
2021/01/17 16:06:48;;;;;;;7.15;2.65;;;;;;;19.66;43.03;100865.61;;;;-58
2021/01/17 16:09:48;;;;;;;5.37;2.99;;;;;;;19.65;42.93;100875.20;;;;-51
2021/01/17 16:12:48;;;;;;;3.19;2.50;;;;;;;19.63;42.85;100878.67;;;;-59
2021/01/17 16:15:48;;;;;;;3.62;2.51;;;;;;;19.61;42.78;100878.16;;;;-58
2021/01/17 16:18:48;;;;;;;4.30;2.57;;;;;;;19.61;42.73;100880.41;;;;-51
2021/01/17 16:21:48;;;;;;;5.21;2.63;;;;;;;19.59;42.69;100874.89;;;;-52
2021/01/17 16:24:48;;;;;;;10.46;3.35;;;;;;;19.55;42.06;100877.41;;;;-52
2021/01/17 16:27:48;;;;;;;4.13;2.86;;;;;;;19.54;42.42;100881.47;;;;-49
2021/01/17 16:30:51;;;;;;;5.99;2.81;;;;;;;19.55;42.60;100887.16;;;;-54
2021/01/17 16:33:48;;;;;;;6.44;2.91;;;;;;;19.55;42.68;100889.71;;;;-52
2021/01/17 16:36:48;;;;;;;5.93;2.91;;;;;;;19.56;42.83;100898.16;;;;-55
2021/01/17 16:39:50;;;;;;;6.33;3.08;;;;;;;19.58;42.81;100901.52;;;;-56
2021/01/17 16:42:48;;;;;;;3.33;2.91;;;;;;;19.59;42.80;100906.52;;;;-53